Scott Camp — WDF3203 — position and weather

sailwx.info

Track history (hours):
 
Tides and Currents Weather Stations Pressure Air Temp Water Temp Dewpoint Dewpoint Depression Visibility Wind Speed Wind Dir Waves Ship Positions

Scott Camp

Owner: Florida Marine Transporters, Inc., Mandeville, LA. More information available from US FCC via Universal Licensing System and Coast Guard Vessel Documentation Center.

Last reported at 2018-Jan-23 19:04 UTC. Time now 2018-Jan-24 05:55 UTC.
Position N 29°30' W 094°52'.

Length 27 m; draft 3.2 m.

Type: Towing. MMSI: 367437150.

Date/timePositionNaut miles runAvg speedWind from/ knotsBaromVisibWave heightAir tempDewpointWater temp
2018-Jan-23 19:04N 29°30' W 094°52'1 8.8
2018-Jan-23 18:58N 29°31' W 094°53'4 8.7
2018-Jan-23 18:30N 29°34' W 094°56'4 8.5
2018-Jan-23 18:00N 29°38' W 094°58'4 8.5
2018-Jan-23 17:30N 29°42' W 094°60'4 6.8
2018-Jan-23 16:57N 29°44' W 095°03'  
2018-Jan-19 01:33N 29°42' W 095°01'0 7.5
2018-Jan-19 01:30N 29°42' W 095°01'4 7.7
2018-Jan-19 01:00N 29°39' W 094°58'4 8.0
2018-Jan-19 00:30N 29°36' W 094°56'4 8.6
2018-Jan-19 00:00N 29°32' W 094°54'69 4.3
2018-Jan-18 07:48N 30°03' W 093°43'2 5.9
2018-Jan-18 07:30N 30°04' W 093°41'3 5.4
2018-Jan-18 07:00N 30°04' W 093°38'2 5.0
2018-Jan-18 06:30N 30°04' W 093°35'2 4.7
2018-Jan-18 06:00N 30°04' W 093°32'2 4.8
2018-Jan-18 05:30N 30°04' W 093°29'2 4.9
2018-Jan-18 05:00N 30°04' W 093°26'2 5.0
2018-Jan-18 04:30N 30°04' W 093°24'2 4.3
2018-Jan-18 04:00N 30°04' W 093°21'2 4.2
2018-Jan-18 03:30N 30°05' W 093°20'3 5.3
2018-Jan-18 03:00N 30°08' W 093°20'2 4.1
2018-Jan-18 02:30N 30°10' W 093°19'1 1.2
2018-Jan-18 02:00N 30°11' W 093°19'0 0.3
2018-Jan-18 01:30N 30°11' W 093°19'0 0.0
2018-Jan-18 01:00N 30°11' W 093°19'0 0.0
2018-Jan-18 00:00N 30°11' W 093°19'0 0.0
2018-Jan-17 23:57N 30°11' W 093°19'  
Track history (hours):
 
Tides and Currents Weather Stations Pressure Air Temp Water Temp Dewpoint Dewpoint Depression Visibility Wind Speed Wind Dir Waves Ship Positions

Scott Camp

Owner: Florida Marine Transporters, Inc., Mandeville, LA. More information available from US FCC via Universal Licensing System and Coast Guard Vessel Documentation Center.

Last reported at 2018-Jan-23 19:04 UTC. Time now 2018-Jan-24 05:55 UTC.
Position N 29°30' W 094°52'.

Length 27 m; draft 3.2 m.

Type: Towing. MMSI: 367437150.

Date/timePositionNaut miles runAvg speedWind from/ knotsBaromVisibWave heightAir tempDewpointWater temp
2018-Jan-23 19:04N 29°30' W 094°52'1 8.8
2018-Jan-23 18:58N 29°31' W 094°53'4 8.7
2018-Jan-23 18:30N 29°34' W 094°56'4 8.5
2018-Jan-23 18:00N 29°38' W 094°58'4 8.5
2018-Jan-23 17:30N 29°42' W 094°60'4 6.8
2018-Jan-23 16:57N 29°44' W 095°03'  
2018-Jan-19 01:33N 29°42' W 095°01'0 7.5
2018-Jan-19 01:30N 29°42' W 095°01'4 7.7
2018-Jan-19 01:00N 29°39' W 094°58'4 8.0
2018-Jan-19 00:30N 29°36' W 094°56'4 8.6
2018-Jan-19 00:00N 29°32' W 094°54'69 4.3
2018-Jan-18 07:48N 30°03' W 093°43'2 5.9
2018-Jan-18 07:30N 30°04' W 093°41'3 5.4
2018-Jan-18 07:00N 30°04' W 093°38'2 5.0
2018-Jan-18 06:30N 30°04' W 093°35'2 4.7
2018-Jan-18 06:00N 30°04' W 093°32'2 4.8
2018-Jan-18 05:30N 30°04' W 093°29'2 4.9
2018-Jan-18 05:00N 30°04' W 093°26'2 5.0
2018-Jan-18 04:30N 30°04' W 093°24'2 4.3
2018-Jan-18 04:00N 30°04' W 093°21'2 4.2
2018-Jan-18 03:30N 30°05' W 093°20'3 5.3
2018-Jan-18 03:00N 30°08' W 093°20'2 4.1
2018-Jan-18 02:30N 30°10' W 093°19'1 1.2
2018-Jan-18 02:00N 30°11' W 093°19'0 0.3
2018-Jan-18 01:30N 30°11' W 093°19'0 0.0
2018-Jan-18 01:00N 30°11' W 093°19'0 0.0
2018-Jan-18 00:00N 30°11' W 093°19'0 0.0
2018-Jan-17 23:57N 30°11' W 093°19'  

Dump ship's entire track history